METAR AND TAF INFORMATION
METAR FOR SBBG
ADDS - METARS form results

(1241 UTC 19 June 2018)
Data provider http://aviationweather.gov/adds/metars/
 
METAR text: SBBG 191215Z 11001KT 2000 0800NE BCFG BR NSC 08/08 Q1024
Conditions at: SBBG (BAGE/CMDT KRAEME, BR) observed 1215 UTC 19 June 2018
Temperature: 8.0°C (46°F)
Dewpoint: 8.0°C (46°F) [RH = 100%]
Pressure (altimeter): 30.24 inches Hg (1024.0 mb)
Winds: from the ESE (110 degrees) at 1 MPH (1 knots; 0.5 m/s)
Visibility: 1.24 miles (2.00 km)
Ceiling: at least 12,000 feet AGL
Clouds: sky clear below 12,000 feet AGL
Weather: BCFG BR  (patches of fog, mist)

METAR text: SBBG 191200Z 07002KT 0300 FG NSC 06/06 Q1024
Conditions at: SBBG (BAGE/CMDT KRAEME, BR) observed 1200 UTC 19 June 2018
Temperature: 6.0°C (43°F)
Dewpoint: 6.0°C (43°F) [RH = 100%]
Pressure (altimeter): 30.24 inches Hg (1024.0 mb)
Winds: from the ENE (70 degrees) at 2 MPH (2 knots; 1.0 m/s)
Visibility: 0.19 miles (0.31 km)
Ceiling: at least 12,000 feet AGL
Clouds: sky clear below 12,000 feet AGL
Weather: FG  (fog)

Forecast for: SBBG (BAGE/CMDT KRAEME, BR)
Text: TAF SBBG 190900Z 1912/2012 06005KT 0800 FG BKN002 TX19/1918Z TN10/200 8Z
Forecast period: 1200 UTC 19 June 2018 to 1200 UTC 20 June 2018
Forecast type: FROM: standard forecast or significant change
Winds: from the ENE (60 degrees) at 6 MPH (5 knots; 2.6 m/s)
Visibility: 0.50 miles (0.80 km)
Ceiling: 200 feet AGL
Clouds: broken clouds at 200 feet AGL
Weather: FG  (fog)
Text: BECMG 1912/1914 35007KT CAVOK RMK PDW
Forecast period: 1200 UTC 19 June 2018 to 1200 UTC 20 June 2018
Forecast type: BECOMING: Conditions expected to become as follows by 1400 UTC 19 June 2018
Winds: from the N (350 degrees) at 8 MPH (7 knots; 3.6 m/s)
Visibility: 6 or more miles (10+ km)
Weather: NSW  (no significant weather)

 AIRPORT MAP

 RUNWAY INFORMATION
Runway 14 Runway length 3770 ft Runway width 148 ft
Runway elevation 0 ft Runway displaced threshold 0 ft Runway heading 0
Runway 32 Runway length 3770 ft Runway width 148 ft
Runway elevation 0 ft Runway displaced threshold 0 ft Runway heading 0
Runway 6 Runway length 4921 ft Runway width 98 ft
Runway elevation 0 ft Runway displaced threshold 0 ft Runway heading 0
Runway 24 Runway length 4921 ft Runway width 98 ft
Runway elevation 0 ft Runway displaced threshold 0 ft Runway heading 0

 AIRPORT FREQUENCIES
Type AFIS Name BAGE RDO Frequency 125.85 MHZ

 AIRPORT NEAR NAVIGATION AIDS
Type VOR Name Bage Frequency 115300 KHZ
Type NDB Name Bage Frequency 235 KHZ



Powered by Virtual Airlines Manager [v2.6.2]